sensor_id;sensor_type;location;lat;lon;timestamp;P1;durP1;ratioP1;P2;durP2;ratioP2
42586;SDS011;28216;53.362;-6.288;2023-06-14T07:19:19;6.45;;;5.63;;
42586;SDS011;28216;53.362;-6.288;2023-06-14T07:21:45;7.68;;;5.72;;
42586;SDS011;28216;53.362;-6.288;2023-06-14T07:24:13;6.22;;;5.63;;
42586;SDS011;28216;53.362;-6.288;2023-06-14T07:26:41;8.18;;;5.45;;
42586;SDS011;28216;53.362;-6.288;2023-06-14T07:29:07;7.97;;;5.10;;
42586;SDS011;28216;53.362;-6.288;2023-06-14T07:31:32;6.68;;;5.38;;
42586;SDS011;28216;53.362;-6.288;2023-06-14T07:33:58;8.75;;;5.07;;
42586;SDS011;28216;53.362;-6.288;2023-06-14T07:36:24;10.63;;;5.40;;
42586;SDS011;28216;53.362;-6.288;2023-06-14T07:38:49;5.95;;;4.70;;
42586;SDS011;28216;53.362;-6.288;2023-06-14T07:41:15;6.40;;;5.75;;
42586;SDS011;28216;53.362;-6.288;2023-06-14T07:43:41;5.72;;;5.22;;
42586;SDS011;28216;53.362;-6.288;2023-06-14T07:46:09;9.43;;;5.25;;
42586;SDS011;28216;53.362;-6.288;2023-06-14T07:48:34;6.88;;;5.60;;
42586;SDS011;28216;53.362;-6.288;2023-06-14T07:51:02;8.05;;;5.45;;
42586;SDS011;28216;53.362;-6.288;2023-06-14T07:53:30;6.30;;;5.53;;
42586;SDS011;28216;53.362;-6.288;2023-06-14T07:55:56;8.77;;;5.68;;
42586;SDS011;28216;53.362;-6.288;2023-06-14T07:58:21;8.75;;;5.93;;
42586;SDS011;28216;53.362;-6.288;2023-06-14T08:00:47;5.40;;;4.90;;
42586;SDS011;28216;53.362;-6.288;2023-06-14T08:03:12;5.68;;;5.03;;
42586;SDS011;28216;53.362;-6.288;2023-06-14T08:05:41;9.32;;;5.57;;
42586;SDS011;28216;53.362;-6.288;2023-06-14T08:08:06;5.70;;;5.05;;
42586;SDS011;28216;53.362;-6.288;2023-06-14T08:10:34;6.20;;;5.22;;
42586;SDS011;28216;53.362;-6.288;2023-06-14T08:13:00;8.35;;;4.75;;
42586;SDS011;28216;53.362;-6.288;2023-06-14T08:15:25;6.47;;;5.60;;
42586;SDS011;28216;53.362;-6.288;2023-06-14T08:17:53;5.57;;;4.90;;
42586;SDS011;28216;53.362;-6.288;2023-06-14T08:20:18;8.57;;;5.53;;
42586;SDS011;28216;53.362;-6.288;2023-06-14T08:22:44;9.68;;;5.10;;
42586;SDS011;28216;53.362;-6.288;2023-06-14T08:25:11;7.57;;;4.78;;
42586;SDS011;28216;53.362;-6.288;2023-06-14T08:27:37;5.93;;;5.00;;
42586;SDS011;28216;53.362;-6.288;2023-06-14T08:30:03;7.40;;;4.75;;
42586;SDS011;28216;53.362;-6.288;2023-06-14T08:32:28;7.03;;;4.97;;
42586;SDS011;28216;53.362;-6.288;2023-06-14T08:34:54;5.95;;;4.80;;
42586;SDS011;28216;53.362;-6.288;2023-06-14T08:37:22;8.57;;;4.85;;
42586;SDS011;28216;53.362;-6.288;2023-06-14T08:39:50;6.90;;;4.97;;
42586;SDS011;28216;53.362;-6.288;2023-06-14T08:42:16;5.40;;;4.90;;
42586;SDS011;28216;53.362;-6.288;2023-06-14T08:44:44;6.18;;;4.68;;
42586;SDS011;28216;53.362;-6.288;2023-06-14T08:47:09;6.07;;;4.50;;
42586;SDS011;28216;53.362;-6.288;2023-06-14T08:49:36;5.03;;;4.53;;
42586;SDS011;28216;53.362;-6.288;2023-06-14T08:52:03;5.00;;;4.53;;
42586;SDS011;28216;53.362;-6.288;2023-06-14T08:54:32;7.97;;;4.50;;
42586;SDS011;28216;53.362;-6.288;2023-06-14T08:57:02;5.10;;;4.70;;
42586;SDS011;28216;53.362;-6.288;2023-06-14T08:59:31;7.55;;;3.92;;
42586;SDS011;28216;53.362;-6.288;2023-06-14T09:02:04;4.80;;;4.00;;
42586;SDS011;28216;53.362;-6.288;2023-06-14T09:04:31;3.90;;;3.50;;
42586;SDS011;28216;53.362;-6.288;2023-06-14T09:06:58;5.82;;;3.97;;
42586;SDS011;28216;53.362;-6.288;2023-06-14T09:09:24;4.25;;;3.85;;
42586;SDS011;28216;53.362;-6.288;2023-06-14T09:11:50;4.78;;;4.00;;
42586;SDS011;28216;53.362;-6.288;2023-06-14T09:14:17;5.57;;;3.97;;
42586;SDS011;28216;53.362;-6.288;2023-06-14T09:16:44;7.80;;;4.00;;
42586;SDS011;28216;53.362;-6.288;2023-06-14T09:19:13;6.10;;;3.72;;
42586;SDS011;28216;53.362;-6.288;2023-06-14T09:21:47;4.03;;;3.60;;
42586;SDS011;28216;53.362;-6.288;2023-06-14T09:24:13;4.80;;;3.88;;
42586;SDS011;28216;53.362;-6.288;2023-06-14T09:26:39;5.60;;;3.60;;
42586;SDS011;28216;53.362;-6.288;2023-06-14T09:29:06;7.82;;;4.03;;
42586;SDS011;28216;53.362;-6.288;2023-06-14T09:31:31;5.10;;;4.00;;
42586;SDS011;28216;53.362;-6.288;2023-06-14T09:33:58;4.60;;;3.72;;
42586;SDS011;28216;53.362;-6.288;2023-06-14T09:36:26;5.28;;;3.78;;
42586;SDS011;28216;53.362;-6.288;2023-06-14T09:38:59;7.45;;;3.85;;
42586;SDS011;28216;53.362;-6.288;2023-06-14T09:44:00;8.18;;;4.20;;
42586;SDS011;28216;53.362;-6.288;2023-06-14T09:46:27;5.95;;;3.92;;
42586;SDS011;28216;53.362;-6.288;2023-06-14T09:48:57;6.07;;;4.07;;
42586;SDS011;28216;53.362;-6.288;2023-06-14T09:51:23;8.20;;;4.30;;
42586;SDS011;28216;53.362;-6.288;2023-06-14T09:53:52;14.50;;;4.10;;
42586;SDS011;28216;53.362;-6.288;2023-06-14T09:56:26;5.97;;;3.50;;
42586;SDS011;28216;53.362;-6.288;2023-06-14T09:58:57;9.68;;;4.18;;
42586;SDS011;28216;53.362;-6.288;2023-06-14T10:01:24;7.45;;;4.10;;
42586;SDS011;28216;53.362;-6.288;2023-06-14T10:03:55;8.10;;;3.80;;
42586;SDS011;28216;53.362;-6.288;2023-06-14T10:06:26;6.43;;;3.88;;
42586;SDS011;28216;53.362;-6.288;2023-06-14T10:08:59;7.63;;;3.90;;
42586;SDS011;28216;53.362;-6.288;2023-06-14T10:11:28;5.95;;;3.60;;
42586;SDS011;28216;53.362;-6.288;2023-06-14T10:13:54;6.95;;;3.63;;
42586;SDS011;28216;53.362;-6.288;2023-06-14T10:24:08;7.65;;;3.80;;
42586;SDS011;28216;53.362;-6.288;2023-06-14T10:26:49;3.90;;;3.50;;
42586;SDS011;28216;53.362;-6.288;2023-06-14T10:29:27;8.80;;;3.65;;
42586;SDS011;28216;53.362;-6.288;2023-06-14T10:31:57;7.32;;;4.03;;
42586;SDS011;28216;53.362;-6.288;2023-06-14T10:34:27;8.77;;;3.97;;
42586;SDS011;28216;53.362;-6.288;2023-06-14T10:37:04;5.60;;;3.78;;
42586;SDS011;28216;53.362;-6.288;2023-06-14T10:39:41;6.90;;;3.45;;
42586;SDS011;28216;53.362;-6.288;2023-06-14T10:42:09;7.53;;;4.00;;
42586;SDS011;28216;53.362;-6.288;2023-06-14T10:47:35;8.02;;;3.92;;
42586;SDS011;28216;53.362;-6.288;2023-06-14T10:50:06;7.38;;;3.97;;
42586;SDS011;28216;53.362;-6.288;2023-06-14T10:52:41;6.75;;;3.80;;
42586;SDS011;28216;53.362;-6.288;2023-06-14T10:55:12;9.35;;;3.65;;
42586;SDS011;28216;53.362;-6.288;2023-06-14T10:57:47;7.18;;;3.97;;
42586;SDS011;28216;53.362;-6.288;2023-06-14T11:00:26;6.57;;;3.83;;
42586;SDS011;28216;53.362;-6.288;2023-06-14T11:05:58;11.05;;;4.60;;
42586;SDS011;28216;53.362;-6.288;2023-06-14T11:11:21;7.40;;;4.00;;
42586;SDS011;28216;53.362;-6.288;2023-06-14T11:13:50;7.55;;;4.72;;
42586;SDS011;28216;53.362;-6.288;2023-06-14T11:16:17;8.40;;;5.50;;
42586;SDS011;28216;53.362;-6.288;2023-06-14T11:18:46;8.73;;;5.35;;
42586;SDS011;28216;53.362;-6.288;2023-06-14T11:21:15;7.03;;;5.07;;
42586;SDS011;28216;53.362;-6.288;2023-06-14T11:23:43;11.65;;;5.30;;
42586;SDS011;28216;53.362;-6.288;2023-06-14T11:26:23;9.88;;;5.03;;
42586;SDS011;28216;53.362;-6.288;2023-06-14T11:29:09;10.48;;;5.25;;
42586;SDS011;28216;53.362;-6.288;2023-06-14T11:34:58;10.35;;;5.63;;
42586;SDS011;28216;53.362;-6.288;2023-06-14T11:37:25;10.02;;;5.20;;
42586;SDS011;28216;53.362;-6.288;2023-06-14T11:39:56;9.80;;;5.57;;
42586;SDS011;28216;53.362;-6.288;2023-06-14T11:45:09;10.63;;;5.30;;
42586;SDS011;28216;53.362;-6.288;2023-06-14T11:47:36;9.43;;;5.10;;
42586;SDS011;28216;53.362;-6.288;2023-06-14T11:50:03;9.02;;;5.55;;
42586;SDS011;28216;53.362;-6.288;2023-06-14T11:52:30;10.57;;;5.45;;
42586;SDS011;28216;53.362;-6.288;2023-06-14T11:58:00;8.70;;;5.30;;
42586;SDS011;28216;53.362;-6.288;2023-06-14T12:00:28;9.32;;;4.78;;
42586;SDS011;28216;53.362;-6.288;2023-06-14T12:02:54;9.18;;;4.63;;
42586;SDS011;28216;53.362;-6.288;2023-06-14T12:05:25;10.15;;;4.85;;
42586;SDS011;28216;53.362;-6.288;2023-06-14T12:07:59;11.50;;;4.90;;
42586;SDS011;28216;53.362;-6.288;2023-06-14T12:10:30;9.35;;;4.93;;
42586;SDS011;28216;53.362;-6.288;2023-06-14T12:13:06;7.57;;;4.53;;
42586;SDS011;28216;53.362;-6.288;2023-06-14T12:15:35;6.68;;;4.20;;
42586;SDS011;28216;53.362;-6.288;2023-06-14T12:18:01;12.20;;;4.90;;
42586;SDS011;28216;53.362;-6.288;2023-06-14T12:20:30;9.93;;;4.78;;
42586;SDS011;28216;53.362;-6.288;2023-06-14T12:22:57;9.15;;;4.47;;
42586;SDS011;28216;53.362;-6.288;2023-06-14T12:25:30;9.18;;;4.15;;
42586;SDS011;28216;53.362;-6.288;2023-06-14T12:28:04;6.70;;;4.10;;
42586;SDS011;28216;53.362;-6.288;2023-06-14T12:30:31;6.43;;;4.30;;
42586;SDS011;28216;53.362;-6.288;2023-06-14T12:32:58;9.02;;;4.47;;
42586;SDS011;28216;53.362;-6.288;2023-06-14T12:35:23;8.07;;;4.38;;
42586;SDS011;28216;53.362;-6.288;2023-06-14T12:37:49;7.07;;;4.25;;
42586;SDS011;28216;53.362;-6.288;2023-06-14T12:40:14;7.72;;;4.10;;
42586;SDS011;28216;53.362;-6.288;2023-06-14T12:42:41;6.82;;;3.72;;
42586;SDS011;28216;53.362;-6.288;2023-06-14T12:45:07;5.80;;;3.92;;
42586;SDS011;28216;53.362;-6.288;2023-06-14T12:47:33;7.00;;;4.20;;
42586;SDS011;28216;53.362;-6.288;2023-06-14T12:49:59;6.25;;;4.07;;
42586;SDS011;28216;53.362;-6.288;2023-06-14T12:52:27;6.72;;;4.38;;
42586;SDS011;28216;53.362;-6.288;2023-06-14T12:54:53;6.05;;;3.95;;
42586;SDS011;28216;53.362;-6.288;2023-06-14T12:57:22;5.50;;;3.90;;
42586;SDS011;28216;53.362;-6.288;2023-06-14T13:03:02;6.07;;;3.90;;
42586;SDS011;28216;53.362;-6.288;2023-06-14T13:05:51;7.25;;;4.28;;
42586;SDS011;28216;53.362;-6.288;2023-06-14T13:08:29;8.32;;;4.05;;
42586;SDS011;28216;53.362;-6.288;2023-06-14T13:11:02;11.05;;;4.57;;
42586;SDS011;28216;53.362;-6.288;2023-06-14T13:13:33;7.10;;;4.57;;
42586;SDS011;28216;53.362;-6.288;2023-06-14T13:16:19;8.98;;;4.63;;
42586;SDS011;28216;53.362;-6.288;2023-06-14T13:19:12;7.15;;;4.32;;
42586;SDS011;28216;53.362;-6.288;2023-06-14T13:22:00;7.70;;;4.28;;
42586;SDS011;28216;53.362;-6.288;2023-06-14T13:24:46;6.20;;;4.07;;
42586;SDS011;28216;53.362;-6.288;2023-06-14T13:33:55;10.05;;;4.30;;
42586;SDS011;28216;53.362;-6.288;2023-06-14T13:36:31;6.97;;;4.55;;
42586;SDS011;28216;53.362;-6.288;2023-06-14T13:45:17;8.68;;;4.43;;
42586;SDS011;28216;53.362;-6.288;2023-06-14T13:47:43;11.85;;;4.80;;
42586;SDS011;28216;53.362;-6.288;2023-06-14T13:50:33;11.15;;;4.88;;
42586;SDS011;28216;53.362;-6.288;2023-06-14T13:53:19;5.50;;;4.32;;
42586;SDS011;28216;53.362;-6.288;2023-06-14T13:55:48;7.72;;;4.60;;
42586;SDS011;28216;53.362;-6.288;2023-06-14T13:58:13;6.63;;;4.45;;
42586;SDS011;28216;53.362;-6.288;2023-06-14T14:00:49;8.52;;;4.70;;
42586;SDS011;28216;53.362;-6.288;2023-06-14T14:03:15;6.90;;;4.60;;
42586;SDS011;28216;53.362;-6.288;2023-06-14T14:05:44;10.40;;;4.95;;
42586;SDS011;28216;53.362;-6.288;2023-06-14T14:08:19;10.75;;;5.15;;
42586;SDS011;28216;53.362;-6.288;2023-06-14T14:10:47;7.60;;;4.90;;
42586;SDS011;28216;53.362;-6.288;2023-06-14T14:13:23;10.95;;;4.38;;
42586;SDS011;28216;53.362;-6.288;2023-06-14T14:15:50;8.90;;;4.32;;
42586;SDS011;28216;53.362;-6.288;2023-06-14T14:18:15;7.78;;;4.18;;
42586;SDS011;28216;53.362;-6.288;2023-06-14T14:20:41;8.07;;;4.10;;
42586;SDS011;28216;53.362;-6.288;2023-06-14T14:23:06;8.82;;;4.45;;
42586;SDS011;28216;53.362;-6.288;2023-06-14T14:25:32;6.72;;;4.28;;
42586;SDS011;28216;53.362;-6.288;2023-06-14T14:27:58;8.65;;;4.35;;
42586;SDS011;28216;53.362;-6.288;2023-06-14T14:30:26;10.05;;;4.00;;
42586;SDS011;28216;53.362;-6.288;2023-06-14T14:32:52;7.32;;;4.22;;
42586;SDS011;28216;53.362;-6.288;2023-06-14T14:35:18;7.93;;;4.28;;
42586;SDS011;28216;53.362;-6.288;2023-06-14T14:37:44;6.53;;;4.35;;
42586;SDS011;28216;53.362;-6.288;2023-06-14T14:40:10;7.85;;;4.75;;
42586;SDS011;28216;53.362;-6.288;2023-06-14T14:42:36;7.03;;;4.35;;
42586;SDS011;28216;53.362;-6.288;2023-06-14T14:45:02;7.60;;;4.35;;
42586;SDS011;28216;53.362;-6.288;2023-06-14T14:47:28;7.63;;;4.55;;
42586;SDS011;28216;53.362;-6.288;2023-06-14T14:49:53;7.63;;;4.28;;
42586;SDS011;28216;53.362;-6.288;2023-06-14T14:52:22;7.97;;;4.30;;
42586;SDS011;28216;53.362;-6.288;2023-06-14T14:54:47;8.25;;;4.10;;
42586;SDS011;28216;53.362;-6.288;2023-06-14T14:57:21;10.40;;;4.35;;
42586;SDS011;28216;53.362;-6.288;2023-06-14T14:59:56;6.60;;;4.30;;
42586;SDS011;28216;53.362;-6.288;2023-06-14T15:02:22;7.20;;;5.03;;
42586;SDS011;28216;53.362;-6.288;2023-06-14T15:04:49;8.68;;;4.10;;
42586;SDS011;28216;53.362;-6.288;2023-06-14T15:07:14;7.05;;;4.13;;
42586;SDS011;28216;53.362;-6.288;2023-06-14T15:09:40;5.57;;;4.05;;
42586;SDS011;28216;53.362;-6.288;2023-06-14T15:12:16;8.27;;;3.90;;
42586;SDS011;28216;53.362;-6.288;2023-06-14T15:14:42;9.82;;;4.25;;
42586;SDS011;28216;53.362;-6.288;2023-06-14T15:17:07;6.60;;;3.90;;
42586;SDS011;28216;53.362;-6.288;2023-06-14T15:19:33;9.52;;;4.43;;
42586;SDS011;28216;53.362;-6.288;2023-06-14T15:22:00;5.68;;;3.90;;
42586;SDS011;28216;53.362;-6.288;2023-06-14T15:24:26;12.40;;;4.22;;
42586;SDS011;28216;53.362;-6.288;2023-06-14T15:26:55;10.27;;;4.63;;
42586;SDS011;28216;53.362;-6.288;2023-06-14T15:29:21;9.48;;;4.57;;
42586;SDS011;28216;53.362;-6.288;2023-06-14T15:31:46;13.77;;;5.97;;
42586;SDS011;28216;53.362;-6.288;2023-06-14T15:34:13;10.45;;;4.43;;
42586;SDS011;28216;53.362;-6.288;2023-06-14T15:36:50;8.93;;;4.45;;
42586;SDS011;28216;53.362;-6.288;2023-06-14T15:39:18;7.07;;;4.90;;
42586;SDS011;28216;53.362;-6.288;2023-06-14T15:41:43;7.35;;;4.70;;
42586;SDS011;28216;53.362;-6.288;2023-06-14T15:44:09;6.78;;;4.47;;
42586;SDS011;28216;53.362;-6.288;2023-06-14T15:46:34;7.03;;;5.00;;
42586;SDS011;28216;53.362;-6.288;2023-06-14T15:49:00;7.30;;;4.22;;
42586;SDS011;28216;53.362;-6.288;2023-06-14T15:51:25;9.07;;;4.55;;
42586;SDS011;28216;53.362;-6.288;2023-06-14T15:53:51;9.23;;;4.72;;
42586;SDS011;28216;53.362;-6.288;2023-06-14T15:56:17;6.70;;;3.95;;
42586;SDS011;28216;53.362;-6.288;2023-06-14T15:58:43;6.50;;;4.43;;
42586;SDS011;28216;53.362;-6.288;2023-06-14T16:01:30;8.23;;;4.32;;
42586;SDS011;28216;53.362;-6.288;2023-06-14T16:03:58;7.82;;;4.80;;
42586;SDS011;28216;53.362;-6.288;2023-06-14T16:06:26;8.93;;;4.80;;
42586;SDS011;28216;53.362;-6.288;2023-06-14T16:08:51;5.75;;;4.68;;
42586;SDS011;28216;53.362;-6.288;2023-06-14T16:11:17;6.75;;;4.40;;
42586;SDS011;28216;53.362;-6.288;2023-06-14T16:13:53;6.28;;;4.55;;
42586;SDS011;28216;53.362;-6.288;2023-06-14T16:16:23;6.38;;;4.63;;
42586;SDS011;28216;53.362;-6.288;2023-06-14T16:18:48;8.15;;;4.45;;
42586;SDS011;28216;53.362;-6.288;2023-06-14T16:21:14;9.82;;;4.45;;
42586;SDS011;28216;53.362;-6.288;2023-06-14T16:23:40;6.50;;;4.28;;
42586;SDS011;28216;53.362;-6.288;2023-06-14T16:26:08;4.97;;;4.18;;
42586;SDS011;28216;53.362;-6.288;2023-06-14T16:28:36;8.93;;;4.03;;
42586;SDS011;28216;53.362;-6.288;2023-06-14T16:31:02;9.20;;;4.32;;
42586;SDS011;28216;53.362;-6.288;2023-06-14T16:33:27;8.32;;;4.10;;
42586;SDS011;28216;53.362;-6.288;2023-06-14T16:35:53;10.10;;;4.80;;
42586;SDS011;28216;53.362;-6.288;2023-06-14T16:38:18;9.65;;;4.47;;
42586;SDS011;28216;53.362;-6.288;2023-06-14T16:40:46;8.82;;;4.10;;
42586;SDS011;28216;53.362;-6.288;2023-06-14T16:43:11;8.07;;;3.97;;
42586;SDS011;28216;53.362;-6.288;2023-06-14T16:45:37;9.20;;;4.38;;
42586;SDS011;28216;53.362;-6.288;2023-06-14T16:48:02;6.93;;;4.57;;
42586;SDS011;28216;53.362;-6.288;2023-06-14T16:50:28;8.20;;;4.00;;
42586;SDS011;28216;53.362;-6.288;2023-06-14T16:52:53;8.65;;;3.92;;
42586;SDS011;28216;53.362;-6.288;2023-06-14T16:55:19;9.40;;;4.53;;
42586;SDS011;28216;53.362;-6.288;2023-06-14T16:57:44;8.27;;;4.63;;
42586;SDS011;28216;53.362;-6.288;2023-06-14T17:00:10;8.90;;;5.05;;
42586;SDS011;28216;53.362;-6.288;2023-06-14T17:02:36;7.18;;;4.20;;
42586;SDS011;28216;53.362;-6.288;2023-06-14T17:05:01;8.50;;;4.45;;
42586;SDS011;28216;53.362;-6.288;2023-06-14T17:07:27;6.32;;;3.92;;
42586;SDS011;28216;53.362;-6.288;2023-06-14T17:09:57;8.85;;;5.43;;
42586;SDS011;28216;53.362;-6.288;2023-06-14T17:12:28;8.13;;;4.32;;
42586;SDS011;28216;53.362;-6.288;2023-06-14T17:14:54;9.63;;;4.78;;
42586;SDS011;28216;53.362;-6.288;2023-06-14T17:17:28;10.57;;;5.00;;
42586;SDS011;28216;53.362;-6.288;2023-06-14T17:19:56;11.98;;;6.90;;
42586;SDS011;28216;53.362;-6.288;2023-06-14T17:22:24;6.60;;;4.15;;
42586;SDS011;28216;53.362;-6.288;2023-06-14T17:24:49;12.85;;;4.43;;
42586;SDS011;28216;53.362;-6.288;2023-06-14T17:27:15;5.82;;;4.20;;
42586;SDS011;28216;53.362;-6.288;2023-06-14T17:29:41;5.90;;;4.20;;
42586;SDS011;28216;53.362;-6.288;2023-06-14T17:32:06;5.68;;;4.32;;
42586;SDS011;28216;53.362;-6.288;2023-06-14T17:34:32;9.20;;;5.43;;
42586;SDS011;28216;53.362;-6.288;2023-06-14T17:36:58;10.05;;;5.07;;
42586;SDS011;28216;53.362;-6.288;2023-06-14T17:39:23;8.45;;;5.43;;
42586;SDS011;28216;53.362;-6.288;2023-06-14T17:41:49;7.72;;;5.05;;
42586;SDS011;28216;53.362;-6.288;2023-06-14T17:44:14;8.98;;;5.55;;
42586;SDS011;28216;53.362;-6.288;2023-06-14T17:46:39;7.07;;;5.22;;
42586;SDS011;28216;53.362;-6.288;2023-06-14T17:49:05;8.90;;;4.97;;
42586;SDS011;28216;53.362;-6.288;2023-06-14T17:51:30;9.73;;;4.93;;
42586;SDS011;28216;53.362;-6.288;2023-06-14T17:53:56;8.90;;;5.10;;
42586;SDS011;28216;53.362;-6.288;2023-06-14T17:56:21;10.60;;;6.40;;
42586;SDS011;28216;53.362;-6.288;2023-06-14T17:58:47;7.95;;;6.10;;
42586;SDS011;28216;53.362;-6.288;2023-06-14T18:01:12;5.47;;;4.90;;
42586;SDS011;28216;53.362;-6.288;2023-06-14T18:03:41;9.18;;;4.90;;
42586;SDS011;28216;53.362;-6.288;2023-06-14T18:06:07;6.97;;;5.05;;
42586;SDS011;28216;53.362;-6.288;2023-06-14T18:08:34;10.48;;;5.80;;
42586;SDS011;28216;53.362;-6.288;2023-06-14T18:11:00;6.75;;;4.68;;
42586;SDS011;28216;53.362;-6.288;2023-06-14T18:13:25;7.20;;;4.72;;
42586;SDS011;28216;53.362;-6.288;2023-06-14T18:15:51;9.50;;;7.13;;
42586;SDS011;28216;53.362;-6.288;2023-06-14T18:18:16;8.48;;;5.30;;
42586;SDS011;28216;53.362;-6.288;2023-06-14T18:20:42;7.88;;;4.85;;
42586;SDS011;28216;53.362;-6.288;2023-06-14T18:23:07;6.90;;;5.10;;
42586;SDS011;28216;53.362;-6.288;2023-06-14T18:25:33;9.75;;;5.22;;
42586;SDS011;28216;53.362;-6.288;2023-06-14T18:27:58;9.07;;;5.28;;
42586;SDS011;28216;53.362;-6.288;2023-06-14T18:30:24;7.68;;;4.80;;
42586;SDS011;28216;53.362;-6.288;2023-06-14T18:32:50;7.85;;;4.45;;
42586;SDS011;28216;53.362;-6.288;2023-06-14T18:35:16;6.05;;;4.13;;
42586;SDS011;28216;53.362;-6.288;2023-06-14T18:37:42;7.35;;;4.18;;
42586;SDS011;28216;53.362;-6.288;2023-06-14T18:40:08;6.88;;;4.25;;
42586;SDS011;28216;53.362;-6.288;2023-06-14T18:42:34;7.40;;;3.95;;
42586;SDS011;28216;53.362;-6.288;2023-06-14T18:45:00;9.20;;;4.95;;
42586;SDS011;28216;53.362;-6.288;2023-06-14T18:47:25;6.03;;;5.28;;
42586;SDS011;28216;53.362;-6.288;2023-06-14T18:49:51;9.23;;;5.57;;
42586;SDS011;28216;53.362;-6.288;2023-06-14T18:52:17;7.35;;;5.43;;
42586;SDS011;28216;53.362;-6.288;2023-06-14T18:54:42;7.60;;;4.88;;
42586;SDS011;28216;53.362;-6.288;2023-06-14T18:57:08;9.75;;;5.13;;
42586;SDS011;28216;53.362;-6.288;2023-06-14T18:59:34;6.72;;;4.90;;
42586;SDS011;28216;53.362;-6.288;2023-06-14T19:01:59;8.15;;;5.13;;
42586;SDS011;28216;53.362;-6.288;2023-06-14T19:04:25;9.50;;;4.75;;
42586;SDS011;28216;53.362;-6.288;2023-06-14T19:06:50;9.93;;;5.22;;
42586;SDS011;28216;53.362;-6.288;2023-06-14T19:09:16;8.50;;;5.00;;
42586;SDS011;28216;53.362;-6.288;2023-06-14T19:11:45;7.75;;;4.70;;
42586;SDS011;28216;53.362;-6.288;2023-06-14T19:14:12;8.15;;;4.60;;
42586;SDS011;28216;53.362;-6.288;2023-06-14T19:16:40;7.05;;;4.80;;
42586;SDS011;28216;53.362;-6.288;2023-06-14T19:19:06;9.75;;;4.65;;
42586;SDS011;28216;53.362;-6.288;2023-06-14T19:21:32;6.25;;;4.60;;
42586;SDS011;28216;53.362;-6.288;2023-06-14T19:23:58;8.93;;;5.65;;
42586;SDS011;28216;53.362;-6.288;2023-06-14T19:26:24;7.93;;;4.90;;
42586;SDS011;28216;53.362;-6.288;2023-06-14T19:28:51;6.38;;;4.90;;
42586;SDS011;28216;53.362;-6.288;2023-06-14T19:31:17;6.05;;;4.68;;
42586;SDS011;28216;53.362;-6.288;2023-06-14T19:33:45;11.63;;;4.90;;
42586;SDS011;28216;53.362;-6.288;2023-06-14T19:36:11;8.90;;;4.57;;
42586;SDS011;28216;53.362;-6.288;2023-06-14T19:38:36;9.55;;;4.65;;
42586;SDS011;28216;53.362;-6.288;2023-06-14T19:41:02;6.50;;;4.45;;
42586;SDS011;28216;53.362;-6.288;2023-06-14T19:43:27;7.60;;;4.45;;
42586;SDS011;28216;53.362;-6.288;2023-06-14T19:45:53;6.18;;;4.22;;
42586;SDS011;28216;53.362;-6.288;2023-06-14T19:48:18;8.25;;;4.20;;
42586;SDS011;28216;53.362;-6.288;2023-06-14T19:50:44;7.07;;;4.43;;
42586;SDS011;28216;53.362;-6.288;2023-06-14T19:53:10;9.60;;;4.18;;
42586;SDS011;28216;53.362;-6.288;2023-06-14T19:55:35;6.43;;;4.20;;
42586;SDS011;28216;53.362;-6.288;2023-06-14T19:58:01;8.07;;;4.60;;
42586;SDS011;28216;53.362;-6.288;2023-06-14T20:00:26;8.40;;;4.55;;
42586;SDS011;28216;53.362;-6.288;2023-06-14T20:02:53;8.50;;;4.85;;
42586;SDS011;28216;53.362;-6.288;2023-06-14T20:05:19;8.35;;;4.82;;
42586;SDS011;28216;53.362;-6.288;2023-06-14T20:07:44;8.02;;;4.18;;
42586;SDS011;28216;53.362;-6.288;2023-06-14T20:10:10;8.18;;;4.40;;
42586;SDS011;28216;53.362;-6.288;2023-06-14T20:12:37;7.97;;;3.85;;
42586;SDS011;28216;53.362;-6.288;2023-06-14T20:15:03;8.82;;;4.75;;
42586;SDS011;28216;53.362;-6.288;2023-06-14T20:17:29;7.32;;;4.30;;
42586;SDS011;28216;53.362;-6.288;2023-06-14T20:19:55;7.07;;;4.72;;
42586;SDS011;28216;53.362;-6.288;2023-06-14T20:22:20;11.73;;;5.80;;
42586;SDS011;28216;53.362;-6.288;2023-06-14T20:24:46;9.02;;;5.00;;
42586;SDS011;28216;53.362;-6.288;2023-06-14T20:27:11;7.55;;;4.80;;
42586;SDS011;28216;53.362;-6.288;2023-06-14T20:29:36;10.32;;;4.88;;
42586;SDS011;28216;53.362;-6.288;2023-06-14T20:32:02;8.45;;;4.45;;
42586;SDS011;28216;53.362;-6.288;2023-06-14T20:34:29;5.68;;;4.43;;
42586;SDS011;28216;53.362;-6.288;2023-06-14T20:36:54;9.50;;;4.50;;
42586;SDS011;28216;53.362;-6.288;2023-06-14T20:39:19;8.07;;;4.63;;
42586;SDS011;28216;53.362;-6.288;2023-06-14T20:41:45;8.68;;;4.50;;
42586;SDS011;28216;53.362;-6.288;2023-06-14T20:44:10;7.25;;;4.70;;
42586;SDS011;28216;53.362;-6.288;2023-06-14T20:46:36;8.88;;;4.60;;
42586;SDS011;28216;53.362;-6.288;2023-06-14T20:49:07;7.93;;;4.38;;
42586;SDS011;28216;53.362;-6.288;2023-06-14T20:51:34;7.15;;;4.88;;
42586;SDS011;28216;53.362;-6.288;2023-06-14T20:54:00;6.10;;;4.60;;
42586;SDS011;28216;53.362;-6.288;2023-06-14T20:56:25;6.85;;;4.47;;
42586;SDS011;28216;53.362;-6.288;2023-06-14T20:58:51;7.45;;;4.18;;
42586;SDS011;28216;53.362;-6.288;2023-06-14T21:01:18;9.90;;;4.38;;
42586;SDS011;28216;53.362;-6.288;2023-06-14T21:03:45;8.05;;;4.80;;
42586;SDS011;28216;53.362;-6.288;2023-06-14T21:06:10;7.00;;;4.50;;
42586;SDS011;28216;53.362;-6.288;2023-06-14T21:08:36;7.78;;;4.20;;
42586;SDS011;28216;53.362;-6.288;2023-06-14T21:11:01;9.02;;;4.45;;
42586;SDS011;28216;53.362;-6.288;2023-06-14T21:13:27;7.50;;;4.82;;
42586;SDS011;28216;53.362;-6.288;2023-06-14T21:15:52;7.10;;;4.93;;
42586;SDS011;28216;53.362;-6.288;2023-06-14T21:18:21;8.02;;;4.80;;
42586;SDS011;28216;53.362;-6.288;2023-06-14T21:20:49;7.82;;;5.00;;
42586;SDS011;28216;53.362;-6.288;2023-06-14T21:23:16;6.47;;;4.82;;
42586;SDS011;28216;53.362;-6.288;2023-06-14T21:25:41;6.40;;;4.88;;
42586;SDS011;28216;53.362;-6.288;2023-06-14T21:28:07;6.85;;;4.40;;
42586;SDS011;28216;53.362;-6.288;2023-06-14T21:30:33;8.15;;;4.82;;
42586;SDS011;28216;53.362;-6.288;2023-06-14T21:33:00;8.27;;;5.30;;
42586;SDS011;28216;53.362;-6.288;2023-06-14T21:35:25;7.60;;;5.07;;
42586;SDS011;28216;53.362;-6.288;2023-06-14T21:37:51;9.10;;;4.97;;
42586;SDS011;28216;53.362;-6.288;2023-06-14T21:40:17;7.22;;;5.30;;
42586;SDS011;28216;53.362;-6.288;2023-06-14T21:42:43;9.75;;;5.07;;
42586;SDS011;28216;53.362;-6.288;2023-06-14T21:45:09;8.68;;;5.05;;
42586;SDS011;28216;53.362;-6.288;2023-06-14T21:47:36;8.32;;;5.43;;
42586;SDS011;28216;53.362;-6.288;2023-06-14T21:50:03;8.13;;;4.80;;
42586;SDS011;28216;53.362;-6.288;2023-06-14T21:52:31;8.82;;;5.38;;
42586;SDS011;28216;53.362;-6.288;2023-06-14T21:54:57;8.30;;;5.22;;
42586;SDS011;28216;53.362;-6.288;2023-06-14T21:57:26;5.95;;;4.78;;
42586;SDS011;28216;53.362;-6.288;2023-06-14T21:59:52;7.43;;;5.40;;
42586;SDS011;28216;53.362;-6.288;2023-06-14T22:02:18;7.63;;;4.53;;
42586;SDS011;28216;53.362;-6.288;2023-06-14T22:04:44;9.52;;;5.18;;
42586;SDS011;28216;53.362;-6.288;2023-06-14T22:07:09;11.88;;;5.10;;
42586;SDS011;28216;53.362;-6.288;2023-06-14T22:09:39;10.13;;;5.10;;
42586;SDS011;28216;53.362;-6.288;2023-06-14T22:12:05;8.25;;;5.10;;
42586;SDS011;28216;53.362;-6.288;2023-06-14T22:14:32;11.88;;;5.22;;
42586;SDS011;28216;53.362;-6.288;2023-06-14T22:16:58;6.63;;;5.32;;
42586;SDS011;28216;53.362;-6.288;2023-06-14T22:19:26;10.35;;;5.20;;
42586;SDS011;28216;53.362;-6.288;2023-06-14T22:21:52;9.55;;;5.68;;
42586;SDS011;28216;53.362;-6.288;2023-06-14T22:24:22;8.45;;;5.40;;
42586;SDS011;28216;53.362;-6.288;2023-06-14T22:26:51;11.40;;;5.63;;
42586;SDS011;28216;53.362;-6.288;2023-06-14T22:29:21;6.80;;;5.47;;
42586;SDS011;28216;53.362;-6.288;2023-06-14T22:31:51;8.68;;;6.22;;
42586;SDS011;28216;53.362;-6.288;2023-06-14T22:34:17;10.02;;;5.90;;
42586;SDS011;28216;53.362;-6.288;2023-06-14T22:36:43;6.95;;;5.80;;
42586;SDS011;28216;53.362;-6.288;2023-06-14T22:39:09;8.93;;;6.10;;